^^
Station Historical Data
Daily Summary for September 19, 2017 Units:  Both    English   Metric
« Previous Day
Next Day »
Daily Weekly Monthly Yearly Custom
  High: Low: Average:
Temperature: TemperatureF °F /  -17.8 °C 57.2 °F /  14 °C 76.9 °F /  24.9 °C
Dew Point: DewpointF °F /  -17.8 °C 12.2 °F /  -11 °C 18.7 °F /  -7.4 °C
Humidity: Humidity% 7% 12%
Wind Speed: WindSpeedMPHmph /  0km/h - 1.4mph /  2.3km/h
Wind Gust: WindSpeedGustMPHmph /  0km/h - -
Wind- - SSE
Pressure: PressureIn in /  0 hPa 29.73 in /  1006.7 hPa -
Precipitation: 0.00 in /  0 mm    
Historical Graphs
 
 
Tabular Data for September 19, 2017
Time Temperature Dew Point Pressure Wind Wind Speed Wind Gust Humidity Rainfall Rate (Hourly) solar Conditions
TemperatureF °F /  -17.8 °C DewpointF °F /  -17.8 °C PressureInin /  0hPa Calm     Humidity% HourlyPrecipInin /  0mm SolarRadiationWatts/m^2 W/m2 Conditions
00:01 67.5 °F /  19.7 °C 14.9 °F /  -9.5 °C 29.86in /  1011.1hPa Calm     13% 0.00in /  0mm 0.0 W/m2
00:07 67.8 °F /  19.9 °C 13.3 °F /  -10.4 °C 29.86in /  1011.1hPa Calm   5.0mph /  8km/h 12% 0.00in /  0mm 0.0 W/m2
00:13 69.1 °F /  20.6 °C 12.4 °F /  -10.9 °C 29.87in /  1011.4hPa Calm     11% 0.00in /  0mm 0.0 W/m2
00:19 70.2 °F /  21.2 °C 13.1 °F /  -10.5 °C 29.86in /  1011.1hPa Calm   8.0mph /  12.9km/h 11% 0.00in /  0mm 0.0 W/m2
00:26 71.8 °F /  22.1 °C 12.2 °F /  -11 °C 29.86in /  1011.1hPa SSE 0.9mph /  1.4km/h 4.0mph /  6.4km/h 10% 0.00in /  0mm 0.0 W/m2
00:32 72.7 °F /  22.6 °C 12.9 °F /  -10.6 °C 29.87in /  1011.4hPa Calm   2.0mph /  3.2km/h 10% 0.00in /  0mm 0.0 W/m2
00:38 72.9 °F /  22.7 °C 13.1 °F /  -10.5 °C 29.86in /  1011.1hPa Calm     10% 0.00in /  0mm 0.0 W/m2
00:44 73.0 °F /  22.8 °C 13.3 °F /  -10.4 °C 29.87in /  1011.4hPa Calm   1.0mph /  1.6km/h 10% 0.00in /  0mm 0.0 W/m2
00:46 73.0 °F /  22.8 °C 13.3 °F /  -10.4 °C 29.87in /  1011.4hPa Calm   1.0mph /  1.6km/h 10% 0.00in /  0mm 0.0 W/m2
00:52 72.9 °F /  22.7 °C 13.1 °F /  -10.5 °C 29.87in /  1011.4hPa Calm   1.0mph /  1.6km/h 10% 0.00in /  0mm 0.0 W/m2
00:58 72.9 °F /  22.7 °C 13.1 °F /  -10.5 °C 29.87in /  1011.4hPa Calm   6.0mph /  9.7km/h 10% 0.00in /  0mm 0.0 W/m2
01:04 72.9 °F /  22.7 °C 13.1 °F /  -10.5 °C 29.87in /  1011.4hPa Calm   1.0mph /  1.6km/h 10% 0.00in /  0mm 0.0 W/m2
01:11 72.9 °F /  22.7 °C 13.1 °F /  -10.5 °C 29.87in /  1011.4hPa Calm   2.0mph /  3.2km/h 10% 0.00in /  0mm 0.0 W/m2
01:17 72.7 °F /  22.6 °C 15.1 °F /  -9.4 °C 29.87in /  1011.4hPa Calm     11% 0.00in /  0mm 0.0 W/m2
01:23 72.3 °F /  22.4 °C 14.9 °F /  -9.5 °C 29.87in /  1011.4hPa Calm     11% 0.00in /  0mm 0.0 W/m2
01:29 71.8 °F /  22.1 °C 14.4 °F /  -9.8 °C 29.86in /  1011.1hPa Calm     11% 0.00in /  0mm 0.0 W/m2
01:35 71.1 °F /  21.7 °C 13.8 °F /  -10.1 °C 29.86in /  1011.1hPa Calm     11% 0.00in /  0mm 0.0 W/m2
01:41 70.3 °F /  21.3 °C 15.3 °F /  -9.3 °C 29.86in /  1011.1hPa Calm     12% 0.00in /  0mm 0.0 W/m2
01:47 69.8 °F /  21 °C 12.9 °F /  -10.6 °C 29.86in /  1011.1hPa Calm     11% 0.00in /  0mm 0.0 W/m2
01:54 69.4 °F /  20.8 °C 14.5 °F /  -9.7 °C 29.85in /  1010.7hPa Calm     12% 0.00in /  0mm 0.0 W/m2
02:00 68.7 °F /  20.4 °C 15.8 °F /  -9 °C 29.85in /  1010.7hPa Calm     13% 0.00in /  0mm 0.0 W/m2
02:06 68.0 °F /  20 °C 13.5 °F /  -10.3 °C 29.85in /  1010.7hPa Calm     12% 0.00in /  0mm 0.0 W/m2
02:12 67.5 °F /  19.7 °C 13.1 °F /  -10.5 °C 29.85in /  1010.7hPa Calm     12% 0.00in /  0mm 0.0 W/m2
02:18 66.9 °F /  19.4 °C 12.6 °F /  -10.8 °C 29.85in /  1010.7hPa Calm     12% 0.00in /  0mm 0.0 W/m2
02:24 66.7 °F /  19.3 °C 14.4 °F /  -9.8 °C 29.85in /  1010.7hPa Calm   1.0mph /  1.6km/h 13% 0.00in /  0mm 0.0 W/m2
02:30 66.6 °F /  19.2 °C 12.4 °F /  -10.9 °C 29.85in /  1010.7hPa Calm     12% 0.00in /  0mm 0.0 W/m2
02:37 66.4 °F /  19.1 °C 14.0 °F /  -10 °C 29.84in /  1010.4hPa Calm     13% 0.00in /  0mm 0.0 W/m2
02:43 65.8 °F /  18.8 °C 13.6 °F /  -10.2 °C 29.85in /  1010.7hPa Calm     13% 0.00in /  0mm 0.0 W/m2
02:49 65.5 °F /  18.6 °C 13.3 °F /  -10.4 °C 29.84in /  1010.4hPa Calm     13% 0.00in /  0mm 0.0 W/m2
02:55 64.9 °F /  18.3 °C 12.9 °F /  -10.6 °C 29.84in /  1010.4hPa Calm     13% 0.00in /  0mm 0.0 W/m2
03:01 64.6 °F /  18.1 °C 12.6 °F /  -10.8 °C 29.84in /  1010.4hPa Calm     13% 0.00in /  0mm 0.0 W/m2
03:07 64.2 °F /  17.9 °C 14.0 °F /  -10 °C 29.84in /  1010.4hPa Calm     14% 0.00in /  0mm 0.0 W/m2
03:14 63.7 °F /  17.6 °C 15.1 °F /  -9.4 °C 29.84in /  1010.4hPa Calm     15% 0.00in /  0mm 0.0 W/m2
03:20 63.3 °F /  17.4 °C 14.9 °F /  -9.5 °C 29.84in /  1010.4hPa Calm     15% 0.00in /  0mm 0.0 W/m2
03:26 63.0 °F /  17.2 °C 14.5 °F /  -9.7 °C 29.84in /  1010.4hPa Calm     15% 0.00in /  0mm 0.0 W/m2
03:32 62.4 °F /  16.9 °C 14.2 °F /  -9.9 °C 29.83in /  1010hPa Calm     15% 0.00in /  0mm 0.0 W/m2
03:38 62.1 °F /  16.7 °C 13.8 °F /  -10.1 °C 29.83in /  1010hPa Calm     15% 0.00in /  0mm 0.0 W/m2
03:44 61.5 °F /  16.4 °C 14.9 °F /  -9.5 °C 29.83in /  1010hPa Calm     16% 0.00in /  0mm 0.0 W/m2
03:50 61.2 °F /  16.2 °C 14.5 °F /  -9.7 °C 29.83in /  1010hPa Calm     16% 0.00in /  0mm 0.0 W/m2
03:57 61.0 °F /  16.1 °C 14.5 °F /  -9.7 °C 29.83in /  1010hPa Calm     16% 0.00in /  0mm 0.0 W/m2
04:03 60.4 °F /  15.8 °C 14.0 °F /  -10 °C 29.83in /  1010hPa Calm     16% 0.00in /  0mm 0.0 W/m2
04:09 60.3 °F /  15.7 °C 15.3 °F /  -9.3 °C 29.83in /  1010hPa Calm     17% 0.00in /  0mm 0.0 W/m2
04:15 60.1 °F /  15.6 °C 15.1 °F /  -9.4 °C 29.83in /  1010hPa Calm     17% 0.00in /  0mm 0.0 W/m2
04:21 60.1 °F /  15.6 °C 15.1 °F /  -9.4 °C 29.83in /  1010hPa Calm     17% 0.00in /  0mm 0.0 W/m2
04:27 60.1 °F /  15.6 °C 15.1 °F /  -9.4 °C 29.83in /  1010hPa Calm     17% 0.00in /  0mm 0.0 W/m2
04:33 60.1 °F /  15.6 °C 15.1 °F /  -9.4 °C 29.83in /  1010hPa Calm     17% 0.00in /  0mm 0.0 W/m2
04:39 59.9 °F /  15.5 °C 16.3 °F /  -8.7 °C 29.83in /  1010hPa Calm     18% 0.00in /  0mm 0.0 W/m2
04:46 59.7 °F /  15.4 °C 16.2 °F /  -8.8 °C 29.83in /  1010hPa Calm     18% 0.00in /  0mm 0.0 W/m2
04:52 59.5 °F /  15.3 °C 17.2 °F /  -8.2 °C 29.83in /  1010hPa Calm     19% 0.00in /  0mm 0.0 W/m2
04:58 59.4 °F /  15.2 °C 17.1 °F /  -8.3 °C 29.83in /  1010hPa Calm     19% 0.00in /  0mm 0.0 W/m2
05:04 59.0 °F /  15 °C 16.7 °F /  -8.5 °C 29.83in /  1010hPa Calm     19% 0.00in /  0mm 0.0 W/m2
05:12 58.6 °F /  14.8 °C 16.5 °F /  -8.6 °C 29.83in /  1010hPa Calm     19% 0.00in /  0mm 0.0 W/m2
05:18 58.6 °F /  14.8 °C 16.5 °F /  -8.6 °C 29.83in /  1010hPa Calm     19% 0.00in /  0mm 0.0 W/m2
05:24 58.5 °F /  14.7 °C 16.3 °F /  -8.7 °C 29.83in /  1010hPa Calm     19% 0.00in /  0mm 0.0 W/m2
05:31 58.5 °F /  14.7 °C 17.6 °F /  -8 °C 29.84in /  1010.4hPa Calm     20% 0.00in /  0mm 0.0 W/m2
05:37 58.5 °F /  14.7 °C 16.3 °F /  -8.7 °C 29.84in /  1010.4hPa Calm     19% 0.00in /  0mm 0.0 W/m2
05:43 58.3 °F /  14.6 °C 17.4 °F /  -8.1 °C 29.84in /  1010.4hPa Calm     20% 0.00in /  0mm 0.0 W/m2
05:49 58.1 °F /  14.5 °C 16.0 °F /  -8.9 °C 29.84in /  1010.4hPa Calm   1.0mph /  1.6km/h 19% 0.00in /  0mm 0.0 W/m2
05:55 57.9 °F /  14.4 °C 17.1 °F /  -8.3 °C 29.84in /  1010.4hPa Calm     20% 0.00in /  0mm 0.0 W/m2
06:01 57.9 °F /  14.4 °C 18.1 °F /  -7.7 °C 29.85in /  1010.7hPa Calm     21% 0.00in /  0mm 0.0 W/m2
06:08 57.9 °F /  14.4 °C 18.1 °F /  -7.7 °C 29.85in /  1010.7hPa Calm     21% 0.00in /  0mm 0.0 W/m2
06:14 57.7 °F /  14.3 °C 16.9 °F /  -8.4 °C 29.85in /  1010.7hPa Calm     20% 0.00in /  0mm 0.0 W/m2
06:20 57.6 °F /  14.2 °C 16.7 °F /  -8.5 °C 29.85in /  1010.7hPa Calm     20% 0.00in /  0mm 0.0 W/m2
06:26 57.4 °F /  14.1 °C 17.8 °F /  -7.9 °C 29.85in /  1010.7hPa Calm     21% 0.00in /  0mm 0.0 W/m2
06:32 57.2 °F /  14 °C 17.6 °F /  -8 °C 29.85in /  1010.7hPa Calm     21% 0.00in /  0mm 0.0 W/m2
06:38 57.2 °F /  14 °C 16.5 °F /  -8.6 °C 29.85in /  1010.7hPa Calm   1.0mph /  1.6km/h 20% 0.00in /  0mm 0.0 W/m2
06:44 57.6 °F /  14.2 °C 18.0 °F /  -7.8 °C 29.86in /  1011.1hPa Calm     21% 0.00in /  0mm 0.0 W/m2
06:50 57.9 °F /  14.4 °C 17.1 °F /  -8.3 °C 29.86in /  1011.1hPa Calm     20% 0.00in /  0mm 5.0 W/m2
06:57 58.3 °F /  14.6 °C 17.4 °F /  -8.1 °C 29.86in /  1011.1hPa Calm     20% 0.00in /  0mm 9.0 W/m2
07:03 58.6 °F /  14.8 °C 18.9 °F /  -7.3 °C 29.86in /  1011.1hPa Calm   2.0mph /  3.2km/h 21% 0.00in /  0mm 14.0 W/m2
07:09 58.8 °F /  14.9 °C 20.1 °F /  -6.6 °C 29.86in /  1011.1hPa Calm   1.0mph /  1.6km/h 22% 0.00in /  0mm 18.0 W/m2
07:15 60.1 °F /  15.6 °C 18.9 °F /  -7.3 °C 29.86in /  1011.1hPa Calm   7.0mph /  11.3km/h 20% 0.00in /  0mm 23.0 W/m2
07:21 61.9 °F /  16.6 °C 20.3 °F /  -6.5 °C 29.87in /  1011.4hPa Calm     20% 0.00in /  0mm 26.0 W/m2
07:27 62.8 °F /  17.1 °C 19.9 °F /  -6.7 °C 29.87in /  1011.4hPa Calm   1.0mph /  1.6km/h 19% 0.00in /  0mm 32.0 W/m2
07:33 63.7 °F /  17.6 °C 19.4 °F /  -7 °C 29.88in /  1011.7hPa Calm   8.0mph /  12.9km/h 18% 0.00in /  0mm 35.0 W/m2
07:39 64.9 °F /  18.3 °C 20.5 °F /  -6.4 °C 29.88in /  1011.7hPa SSE 0.9mph /  1.4km/h 4.0mph /  6.4km/h 18% 0.00in /  0mm 39.0 W/m2
07:45 66.0 °F /  18.9 °C 18.5 °F /  -7.5 °C 29.88in /  1011.7hPa Calm   4.0mph /  6.4km/h 16% 0.00in /  0mm 42.0 W/m2
07:52 66.7 °F /  19.3 °C 19.0 °F /  -7.2 °C 29.88in /  1011.7hPa Calm   6.0mph /  9.7km/h 16% 0.00in /  0mm 46.0 W/m2
07:58 67.5 °F /  19.7 °C 19.8 °F /  -6.8 °C 29.88in /  1011.7hPa ESE 2.0mph /  3.2km/h 5.0mph /  8km/h 16% 0.00in /  0mm 49.0 W/m2
08:04 68.4 °F /  20.2 °C 18.9 °F /  -7.3 °C 29.88in /  1011.7hPa East 2.0mph /  3.2km/h 6.0mph /  9.7km/h 15% 0.00in /  0mm 53.0 W/m2
08:10 69.1 °F /  20.6 °C 19.4 °F /  -7 °C 29.88in /  1011.7hPa East 0.9mph /  1.4km/h 8.0mph /  12.9km/h 15% 0.00in /  0mm 56.0 W/m2
08:16 69.8 °F /  21 °C 20.1 °F /  -6.6 °C 29.89in /  1012.1hPa NNE 4.0mph /  6.4km/h 9.0mph /  14.5km/h 15% 0.00in /  0mm 60.0 W/m2
08:22 70.3 °F /  21.3 °C 20.5 °F /  -6.4 °C 29.89in /  1012.1hPa Calm   9.0mph /  14.5km/h 15% 0.00in /  0mm 63.0 W/m2
08:28 70.9 °F /  21.6 °C 19.2 °F /  -7.1 °C 29.89in /  1012.1hPa ESE 8.9mph /  14.3km/h 9.0mph /  14.5km/h 14% 0.00in /  0mm 65.0 W/m2
08:34 71.2 °F /  21.8 °C 19.6 °F /  -6.9 °C 29.89in /  1012.1hPa ENE 4.9mph /  7.9km/h 8.0mph /  12.9km/h 14% 0.00in /  0mm 67.0 W/m2
08:40 71.8 °F /  22.1 °C 18.3 °F /  -7.6 °C 29.89in /  1012.1hPa ENE 4.9mph /  7.9km/h 8.0mph /  12.9km/h 13% 0.00in /  0mm 70.0 W/m2
08:47 72.3 °F /  22.4 °C 18.7 °F /  -7.4 °C 29.89in /  1012.1hPa NE 4.9mph /  7.9km/h 9.0mph /  14.5km/h 13% 0.00in /  0mm 72.0 W/m2
08:53 72.7 °F /  22.6 °C 19.0 °F /  -7.2 °C 29.89in /  1012.1hPa SSE 0.9mph /  1.4km/h 8.0mph /  12.9km/h 13% 0.00in /  0mm 76.0 W/m2
08:59 73.2 °F /  22.9 °C 19.4 °F /  -7 °C 29.89in /  1012.1hPa Calm   8.0mph /  12.9km/h 13% 0.00in /  0mm 77.0 W/m2
09:05 73.8 °F /  23.2 °C 19.8 °F /  -6.8 °C 29.89in /  1012.1hPa NE 4.0mph /  6.4km/h 5.0mph /  8km/h 13% 0.00in /  0mm 79.0 W/m2
09:11 74.3 °F /  23.5 °C 18.3 °F /  -7.6 °C 29.89in /  1012.1hPa NE 4.0mph /  6.4km/h 7.0mph /  11.3km/h 12% 0.00in /  0mm 88.0 W/m2
09:17 74.8 °F /  23.8 °C 18.9 °F /  -7.3 °C 29.88in /  1011.7hPa ENE 2.9mph /  4.7km/h 9.0mph /  14.5km/h 12% 0.00in /  0mm 84.0 W/m2
09:23 75.4 °F /  24.1 °C 19.2 °F /  -7.1 °C 29.88in /  1011.7hPa NNE 2.0mph /  3.2km/h 5.0mph /  8km/h 12% 0.00in /  0mm 86.0 W/m2
09:29 75.9 °F /  24.4 °C 19.6 °F /  -6.9 °C 29.88in /  1011.7hPa ESE 6.0mph /  9.7km/h 9.0mph /  14.5km/h 12% 0.00in /  0mm 90.0 W/m2
09:36 76.5 °F /  24.7 °C 20.1 °F /  -6.6 °C 29.88in /  1011.7hPa ENE 0.9mph /  1.4km/h 8.0mph /  12.9km/h 12% 0.00in /  0mm 137.0 W/m2
09:42 77.4 °F /  25.2 °C 18.7 °F /  -7.4 °C 29.88in /  1011.7hPa East 0.9mph /  1.4km/h 7.0mph /  11.3km/h 11% 0.00in /  0mm 538.0 W/m2
09:48 78.3 °F /  25.7 °C 19.4 °F /  -7 °C 29.88in /  1011.7hPa Calm   7.0mph /  11.3km/h 11% 0.00in /  0mm 559.0 W/m2
09:54 78.8 °F /  26 °C 19.8 °F /  -6.8 °C 29.88in /  1011.7hPa SE 0.9mph /  1.4km/h 10.0mph /  16.1km/h 11% 0.00in /  0mm 580.0 W/m2
10:00 79.5 °F /  26.4 °C 18.1 °F /  -7.7 °C 29.88in /  1011.7hPa East 6.9mph /  11.1km/h 10.0mph /  16.1km/h 10% 0.00in /  0mm 599.0 W/m2
10:06 80.2 °F /  26.8 °C 18.7 °F /  -7.4 °C 29.88in /  1011.7hPa East 4.9mph /  7.9km/h 9.0mph /  14.5km/h 10% 0.00in /  0mm 617.0 W/m2
10:12 81.0 °F /  27.2 °C 19.2 °F /  -7.1 °C 29.88in /  1011.7hPa ESE 0.9mph /  1.4km/h 12.0mph /  19.3km/h 10% 0.00in /  0mm 631.0 W/m2
10:18 81.7 °F /  27.6 °C 19.8 °F /  -6.8 °C 29.87in /  1011.4hPa ESE 8.1mph /  13km/h 9.0mph /  14.5km/h 10% 0.00in /  0mm 652.0 W/m2
10:24 82.2 °F /  27.9 °C 17.8 °F /  -7.9 °C 29.87in /  1011.4hPa NNE 0.9mph /  1.4km/h 6.0mph /  9.7km/h 9% 0.00in /  0mm 663.0 W/m2
10:31 82.9 °F /  28.3 °C 18.3 °F /  -7.6 °C 29.87in /  1011.4hPa NE 4.9mph /  7.9km/h 13.0mph /  20.9km/h 9% 0.00in /  0mm 680.0 W/m2
10:37 83.5 °F /  28.6 °C 18.7 °F /  -7.4 °C 29.86in /  1011.1hPa NE 4.9mph /  7.9km/h 9.0mph /  14.5km/h 9% 0.00in /  0mm 694.0 W/m2
10:43 83.8 °F /  28.8 °C 19.0 °F /  -7.2 °C 29.86in /  1011.1hPa Calm   5.0mph /  8km/h 9% 0.00in /  0mm 707.0 W/m2
10:49 84.0 °F /  28.9 °C 19.0 °F /  -7.2 °C 29.86in /  1011.1hPa NE 4.9mph /  7.9km/h 7.0mph /  11.3km/h 9% 0.00in /  0mm 719.0 W/m2
10:55 84.7 °F /  29.3 °C 19.6 °F /  -6.9 °C 29.86in /  1011.1hPa NNE 6.0mph /  9.7km/h 10.0mph /  16.1km/h 9% 0.00in /  0mm 733.0 W/m2
11:01 85.5 °F /  29.7 °C 20.1 °F /  -6.6 °C 29.86in /  1011.1hPa ENE 2.9mph /  4.7km/h 8.0mph /  12.9km/h 9% 0.00in /  0mm 747.0 W/m2
11:07 86.0 °F /  30 °C 20.7 °F /  -6.3 °C 29.86in /  1011.1hPa NNE 2.0mph /  3.2km/h 8.0mph /  12.9km/h 9% 0.00in /  0mm 759.0 W/m2
11:13 86.4 °F /  30.2 °C 20.8 °F /  -6.2 °C 29.85in /  1010.7hPa North 2.0mph /  3.2km/h 5.0mph /  8km/h 9% 0.00in /  0mm 770.0 W/m2
11:20 87.1 °F /  30.6 °C 21.4 °F /  -5.9 °C 29.85in /  1010.7hPa ENE 4.0mph /  6.4km/h 5.0mph /  8km/h 9% 0.00in /  0mm 782.0 W/m2
11:26 88.0 °F /  31.1 °C 19.4 °F /  -7 °C 29.85in /  1010.7hPa NNE 2.0mph /  3.2km/h 6.0mph /  9.7km/h 8% 0.00in /  0mm 789.0 W/m2
11:32 88.5 °F /  31.4 °C 19.8 °F /  -6.8 °C 29.85in /  1010.7hPa ESE 2.0mph /  3.2km/h 3.0mph /  4.8km/h 8% 0.00in /  0mm 796.0 W/m2
11:38 89.2 °F /  31.8 °C 20.3 °F /  -6.5 °C 29.85in /  1010.7hPa ENE 4.0mph /  6.4km/h 4.0mph /  6.4km/h 8% 0.00in /  0mm 807.0 W/m2
11:44 90.0 °F /  32.2 °C 20.8 °F /  -6.2 °C 29.85in /  1010.7hPa ESE 0.9mph /  1.4km/h 1.0mph /  1.6km/h 8% 0.00in /  0mm 816.0 W/m2
11:50 90.5 °F /  32.5 °C 21.2 °F /  -6 °C 29.84in /  1010.4hPa ENE 2.0mph /  3.2km/h 2.0mph /  3.2km/h 8% 0.00in /  0mm 819.0 W/m2
11:56 90.9 °F /  32.7 °C 21.4 °F /  -5.9 °C 29.85in /  1010.7hPa NW 4.0mph /  6.4km/h 6.0mph /  9.7km/h 8% 0.00in /  0mm 823.0 W/m2
12:02 91.2 °F /  32.9 °C 21.7 °F /  -5.7 °C 29.84in /  1010.4hPa NE 2.0mph /  3.2km/h 6.0mph /  9.7km/h 8% 0.00in /  0mm 830.0 W/m2
12:09 91.6 °F /  33.1 °C 21.9 °F /  -5.6 °C 29.83in /  1010hPa North 2.9mph /  4.7km/h 7.0mph /  11.3km/h 8% 0.00in /  0mm 835.0 W/m2
12:15 91.2 °F /  32.9 °C 21.7 °F /  -5.7 °C 29.83in /  1010hPa West 0.9mph /  1.4km/h 4.0mph /  6.4km/h 8% 0.00in /  0mm 831.0 W/m2
12:21 91.0 °F /  32.8 °C 21.6 °F /  -5.8 °C 29.83in /  1010hPa WNW 2.0mph /  3.2km/h 6.0mph /  9.7km/h 8% 0.00in /  0mm 835.0 W/m2
12:27 90.7 °F /  32.6 °C 21.4 °F /  -5.9 °C 29.83in /  1010hPa Calm   6.0mph /  9.7km/h 8% 0.00in /  0mm 837.0 W/m2
12:33 90.1 °F /  32.3 °C 20.8 °F /  -6.2 °C 29.82in /  1009.7hPa Calm   3.0mph /  4.8km/h 8% 0.00in /  0mm 838.0 W/m2
12:39 90.1 °F /  32.3 °C 20.8 °F /  -6.2 °C 29.82in /  1009.7hPa Calm   5.0mph /  8km/h 8% 0.00in /  0mm 840.0 W/m2
12:51 91.6 °F /  33.1 °C 21.9 °F /  -5.6 °C 29.82in /  1009.7hPa NW 2.9mph /  4.7km/h 7.0mph /  11.3km/h 8% 0.00in /  0mm 838.0 W/m2
12:58 91.9 °F /  33.3 °C 22.3 °F /  -5.4 °C 29.81in /  1009.4hPa WNW 0.9mph /  1.4km/h 7.0mph /  11.3km/h 8% 0.00in /  0mm 840.0 W/m2
13:04 91.9 °F /  33.3 °C 22.3 °F /  -5.4 °C 29.80in /  1009hPa Calm   2.0mph /  3.2km/h 8% 0.00in /  0mm 837.0 W/m2
13:10 92.1 °F /  33.4 °C 22.5 °F /  -5.3 °C 29.80in /  1009hPa South 2.0mph /  3.2km/h 6.0mph /  9.7km/h 8% 0.00in /  0mm 833.0 W/m2
13:16 91.6 °F /  33.1 °C 21.9 °F /  -5.6 °C 29.80in /  1009hPa SSW 4.9mph /  7.9km/h 11.0mph /  17.7km/h 8% 0.00in /  0mm 831.0 W/m2
13:22 91.2 °F /  32.9 °C 21.7 °F /  -5.7 °C 29.79in /  1008.7hPa NW 2.9mph /  4.7km/h 8.0mph /  12.9km/h 8% 0.00in /  0mm 828.0 W/m2
14:07 92.7 °F /  33.7 °C 22.8 °F /  -5.1 °C 29.77in /  1008hPa NNW 0.9mph /  1.4km/h 6.0mph /  9.7km/h 8% 0.00in /  0mm 758.0 W/m2
14:13 91.9 °F /  33.3 °C 22.3 °F /  -5.4 °C 29.77in /  1008hPa Calm   5.0mph /  8km/h 8% 0.00in /  0mm 737.0 W/m2
14:19 91.9 °F /  33.3 °C 22.3 °F /  -5.4 °C 29.77in /  1008hPa Calm     8% 0.00in /  0mm 738.0 W/m2
14:25 92.7 °F /  33.7 °C 22.8 °F /  -5.1 °C 29.76in /  1007.7hPa Calm   5.0mph /  8km/h 8% 0.00in /  0mm 712.0 W/m2
14:31 93.0 °F /  33.9 °C 23.0 °F /  -5 °C 29.76in /  1007.7hPa West 4.9mph /  7.9km/h 5.0mph /  8km/h 8% 0.00in /  0mm 703.0 W/m2
14:38 93.0 °F /  33.9 °C 19.9 °F /  -6.7 °C 29.76in /  1007.7hPa NW 4.0mph /  6.4km/h 9.0mph /  14.5km/h 7% 0.00in /  0mm 694.0 W/m2
14:44 93.6 °F /  34.2 °C 20.3 °F /  -6.5 °C 29.76in /  1007.7hPa Calm   3.0mph /  4.8km/h 7% 0.00in /  0mm 682.0 W/m2
14:50 93.6 °F /  34.2 °C 20.3 °F /  -6.5 °C 29.75in /  1007.3hPa WSW 4.0mph /  6.4km/h 9.0mph /  14.5km/h 7% 0.00in /  0mm 668.0 W/m2
14:56 92.8 °F /  33.8 °C 19.8 °F /  -6.8 °C 29.75in /  1007.3hPa WSW 2.0mph /  3.2km/h 3.0mph /  4.8km/h 7% 0.00in /  0mm 654.0 W/m2
15:02 92.7 °F /  33.7 °C 19.6 °F /  -6.9 °C 29.75in /  1007.3hPa Calm   5.0mph /  8km/h 7% 0.00in /  0mm 638.0 W/m2
15:08 93.0 °F /  33.9 °C 19.9 °F /  -6.7 °C 29.75in /  1007.3hPa WSW 0.9mph /  1.4km/h 2.0mph /  3.2km/h 7% 0.00in /  0mm 619.0 W/m2
15:14 92.8 °F /  33.8 °C 19.8 °F /  -6.8 °C 29.75in /  1007.3hPa Calm   2.0mph /  3.2km/h 7% 0.00in /  0mm 608.0 W/m2
15:21 93.0 °F /  33.9 °C 23.0 °F /  -5 °C 29.74in /  1007hPa Calm     8% 0.00in /  0mm 587.0 W/m2
15:27 93.6 °F /  34.2 °C 20.3 °F /  -6.5 °C 29.74in /  1007hPa NW 0.9mph /  1.4km/h 4.0mph /  6.4km/h 7% 0.00in /  0mm 564.0 W/m2
15:33 93.9 °F /  34.4 °C 20.5 °F /  -6.4 °C 29.74in /  1007hPa WSW 2.0mph /  3.2km/h 4.0mph /  6.4km/h 7% 0.00in /  0mm 547.0 W/m2
15:39 93.7 °F /  34.3 °C 20.5 °F /  -6.4 °C 29.74in /  1007hPa Calm   7.0mph /  11.3km/h 7% 0.00in /  0mm 529.0 W/m2
15:45 93.7 °F /  34.3 °C 20.5 °F /  -6.4 °C 29.74in /  1007hPa North 6.0mph /  9.7km/h 6.0mph /  9.7km/h 7% 0.00in /  0mm 508.0 W/m2
15:51 93.9 °F /  34.4 °C 20.5 °F /  -6.4 °C 29.74in /  1007hPa North 2.0mph /  3.2km/h 6.0mph /  9.7km/h 7% 0.00in /  0mm 489.0 W/m2
15:57 93.9 °F /  34.4 °C 20.5 °F /  -6.4 °C 29.74in /  1007hPa NE 4.9mph /  7.9km/h 7.0mph /  11.3km/h 7% 0.00in /  0mm 475.0 W/m2
16:04 93.6 °F /  34.2 °C 20.3 °F /  -6.5 °C 29.74in /  1007hPa North 8.1mph /  13km/h 10.0mph /  16.1km/h 7% 0.00in /  0mm 454.0 W/m2
16:10 93.6 °F /  34.2 °C 20.3 °F /  -6.5 °C 29.73in /  1006.7hPa Calm   6.0mph /  9.7km/h 7% 0.00in /  0mm 429.0 W/m2
16:16 93.7 °F /  34.3 °C 20.5 °F /  -6.4 °C 29.73in /  1006.7hPa ENE 0.9mph /  1.4km/h 6.0mph /  9.7km/h 7% 0.00in /  0mm 408.0 W/m2
16:22 93.6 °F /  34.2 °C 20.3 °F /  -6.5 °C 29.73in /  1006.7hPa NNE 0.9mph /  1.4km/h 5.0mph /  8km/h 7% 0.00in /  0mm 394.0 W/m2
16:28 93.6 °F /  34.2 °C 20.3 °F /  -6.5 °C 29.73in /  1006.7hPa Calm   1.0mph /  1.6km/h 7% 0.00in /  0mm 357.0 W/m2
16:34 93.6 °F /  34.2 °C 20.3 °F /  -6.5 °C 29.73in /  1006.7hPa SSE 2.9mph /  4.7km/h 4.0mph /  6.4km/h 7% 0.00in /  0mm 350.0 W/m2
16:40 93.6 °F /  34.2 °C 20.3 °F /  -6.5 °C 29.73in /  1006.7hPa SE 4.0mph /  6.4km/h 4.0mph /  6.4km/h 7% 0.00in /  0mm 327.0 W/m2
16:46 93.7 °F /  34.3 °C 20.5 °F /  -6.4 °C 29.74in /  1007hPa Calm   4.0mph /  6.4km/h 7% 0.00in /  0mm 264.0 W/m2
16:53 93.6 °F /  34.2 °C 20.3 °F /  -6.5 °C 29.74in /  1007hPa SE 2.0mph /  3.2km/h 3.0mph /  4.8km/h 7% 0.00in /  0mm 294.0 W/m2
16:59 93.7 °F /  34.3 °C 23.5 °F /  -4.7 °C 29.74in /  1007hPa Calm   4.0mph /  6.4km/h 8% 0.00in /  0mm 276.0 W/m2
17:05 93.9 °F /  34.4 °C 20.5 °F /  -6.4 °C 29.74in /  1007hPa Calm   2.0mph /  3.2km/h 7% 0.00in /  0mm 251.0 W/m2
17:11 93.7 °F /  34.3 °C 20.5 °F /  -6.4 °C 29.74in /  1007hPa West 0.9mph /  1.4km/h 3.0mph /  4.8km/h 7% 0.00in /  0mm 234.0 W/m2
17:17 93.4 °F /  34.1 °C 20.1 °F /  -6.6 °C 29.74in /  1007hPa Calm   1.0mph /  1.6km/h 7% 0.00in /  0mm 209.0 W/m2
17:23 93.4 °F /  34.1 °C 23.4 °F /  -4.8 °C 29.74in /  1007hPa Calm   1.0mph /  1.6km/h 8% 0.00in /  0mm 188.0 W/m2
17:30 93.0 °F /  33.9 °C 23.0 °F /  -5 °C 29.74in /  1007hPa Calm   10.0mph /  16.1km/h 8% 0.00in /  0mm 174.0 W/m2
17:36 92.7 °F /  33.7 °C 22.8 °F /  -5.1 °C 29.74in /  1007hPa SSW 2.0mph /  3.2km/h 10.0mph /  16.1km/h 8% 0.00in /  0mm 153.0 W/m2
17:42 91.8 °F /  33.2 °C 22.1 °F /  -5.5 °C 29.75in /  1007.3hPa SSE 4.0mph /  6.4km/h 12.0mph /  19.3km/h 8% 0.00in /  0mm 134.0 W/m2
17:48 91.2 °F /  32.9 °C 21.7 °F /  -5.7 °C 29.75in /  1007.3hPa SE 6.9mph /  11.1km/h 10.0mph /  16.1km/h 8% 0.00in /  0mm 120.0 W/m2
17:54 90.3 °F /  32.4 °C 21.0 °F /  -6.1 °C 29.75in /  1007.3hPa South 8.9mph /  14.3km/h 10.0mph /  16.1km/h 8% 0.00in /  0mm 97.0 W/m2
18:00 89.4 °F /  31.9 °C 23.2 °F /  -4.9 °C 29.76in /  1007.7hPa South 2.9mph /  4.7km/h 7.0mph /  11.3km/h 9% 0.00in /  0mm 74.0 W/m2
18:06 88.9 °F /  31.6 °C 22.8 °F /  -5.1 °C 29.76in /  1007.7hPa SSE 2.9mph /  4.7km/h 11.0mph /  17.7km/h 9% 0.00in /  0mm 51.0 W/m2
18:12 88.2 °F /  31.2 °C 22.3 °F /  -5.4 °C 29.76in /  1007.7hPa South 2.0mph /  3.2km/h 6.0mph /  9.7km/h 9% 0.00in /  0mm 35.0 W/m2
18:19 87.6 °F /  30.9 °C 21.7 °F /  -5.7 °C 29.77in /  1008hPa SW 6.0mph /  9.7km/h 10.0mph /  16.1km/h 9% 0.00in /  0mm 28.0 W/m2
18:25 87.1 °F /  30.6 °C 21.4 °F /  -5.9 °C 29.77in /  1008hPa South 4.9mph /  7.9km/h 8.0mph /  12.9km/h 9% 0.00in /  0mm 21.0 W/m2
18:31 86.4 °F /  30.2 °C 23.4 °F /  -4.8 °C 29.77in /  1008hPa South 2.9mph /  4.7km/h 7.0mph /  11.3km/h 10% 0.00in /  0mm 14.0 W/m2
18:37 85.8 °F /  29.9 °C 23.0 °F /  -5 °C 29.78in /  1008.4hPa Calm   9.0mph /  14.5km/h 10% 0.00in /  0mm 9.0 W/m2
18:43 85.3 °F /  29.6 °C 22.6 °F /  -5.2 °C 29.78in /  1008.4hPa SE 2.9mph /  4.7km/h 5.0mph /  8km/h 10% 0.00in /  0mm 5.0 W/m2
18:49 84.7 °F /  29.3 °C 22.1 °F /  -5.5 °C 29.78in /  1008.4hPa SE 2.0mph /  3.2km/h 5.0mph /  8km/h 10% 0.00in /  0mm 0.0 W/m2
18:55 84.4 °F /  29.1 °C 21.9 °F /  -5.6 °C 29.78in /  1008.4hPa SSE 6.0mph /  9.7km/h 7.0mph /  11.3km/h 10% 0.00in /  0mm 0.0 W/m2
19:01 83.8 °F /  28.8 °C 21.4 °F /  -5.9 °C 29.78in /  1008.4hPa SE 2.0mph /  3.2km/h 9.0mph /  14.5km/h 10% 0.00in /  0mm 0.0 W/m2
19:08 83.7 °F /  28.7 °C 21.4 °F /  -5.9 °C 29.78in /  1008.4hPa ESE 2.9mph /  4.7km/h 7.0mph /  11.3km/h 10% 0.00in /  0mm 0.0 W/m2
19:14 83.5 °F /  28.6 °C 21.2 °F /  -6 °C 29.78in /  1008.4hPa ESE 0.9mph /  1.4km/h 1.0mph /  1.6km/h 10% 0.00in /  0mm 0.0 W/m2
19:20 83.1 °F /  28.4 °C 20.8 °F /  -6.2 °C 29.78in /  1008.4hPa ESE 4.9mph /  7.9km/h 9.0mph /  14.5km/h 10% 0.00in /  0mm 0.0 W/m2
19:26 82.8 °F /  28.2 °C 22.8 °F /  -5.1 °C 29.79in /  1008.7hPa SE 2.0mph /  3.2km/h 4.0mph /  6.4km/h 11% 0.00in /  0mm 0.0 W/m2
19:32 82.4 °F /  28 °C 22.6 °F /  -5.2 °C 29.79in /  1008.7hPa SE 0.9mph /  1.4km/h 5.0mph /  8km/h 11% 0.00in /  0mm 0.0 W/m2
19:38 82.0 °F /  27.8 °C 22.3 °F /  -5.4 °C 29.80in /  1009hPa SE 0.9mph /  1.4km/h 1.0mph /  1.6km/h 11% 0.00in /  0mm 0.0 W/m2
19:44 81.7 °F /  27.6 °C 22.1 °F /  -5.5 °C 29.80in /  1009hPa Calm   2.0mph /  3.2km/h 11% 0.00in /  0mm 0.0 W/m2
19:50 81.1 °F /  27.3 °C 21.6 °F /  -5.8 °C 29.80in /  1009hPa Calm   2.0mph /  3.2km/h 11% 0.00in /  0mm 0.0 W/m2
20:05 80.4 °F /  26.9 °C 21.0 °F /  -6.1 °C 29.80in /  1009hPa SE 6.0mph /  9.7km/h 7.0mph /  11.3km/h 11% 0.00in /  0mm 0.0 W/m2
20:11 80.2 °F /  26.8 °C 21.0 °F /  -6.1 °C 29.81in /  1009.4hPa SE 4.9mph /  7.9km/h 7.0mph /  11.3km/h 11% 0.00in /  0mm 0.0 W/m2
20:17 80.2 °F /  26.8 °C 21.0 °F /  -6.1 °C 29.81in /  1009.4hPa Calm   7.0mph /  11.3km/h 11% 0.00in /  0mm 0.0 W/m2
20:23 80.4 °F /  26.9 °C 21.0 °F /  -6.1 °C 29.82in /  1009.7hPa ESE 0.9mph /  1.4km/h 4.0mph /  6.4km/h 11% 0.00in /  0mm 0.0 W/m2
20:29 80.4 °F /  26.9 °C 21.0 °F /  -6.1 °C 29.82in /  1009.7hPa SSE 4.9mph /  7.9km/h 7.0mph /  11.3km/h 11% 0.00in /  0mm 0.0 W/m2
20:35 80.4 °F /  26.9 °C 21.0 °F /  -6.1 °C 29.82in /  1009.7hPa SSE 2.0mph /  3.2km/h 2.0mph /  3.2km/h 11% 0.00in /  0mm 0.0 W/m2
20:41 80.2 °F /  26.8 °C 23.0 °F /  -5 °C 29.82in /  1009.7hPa Calm   1.0mph /  1.6km/h 12% 0.00in /  0mm 0.0 W/m2
20:48 79.9 °F /  26.6 °C 22.8 °F /  -5.1 °C 29.83in /  1010hPa Calm     12% 0.00in /  0mm 0.0 W/m2
20:54 79.3 °F /  26.3 °C 22.3 °F /  -5.4 °C 29.83in /  1010hPa Calm   2.0mph /  3.2km/h 12% 0.00in /  0mm 0.0 W/m2
21:00 79.0 °F /  26.1 °C 22.1 °F /  -5.5 °C 29.84in /  1010.4hPa Calm     12% 0.00in /  0mm 0.0 W/m2
21:06 78.4 °F /  25.8 °C 23.5 °F /  -4.7 °C 29.84in /  1010.4hPa Calm     13% 0.00in /  0mm 0.0 W/m2
21:12 77.9 °F /  25.5 °C 23.2 °F /  -4.9 °C 29.85in /  1010.7hPa Calm     13% 0.00in /  0mm 0.0 W/m2
21:18 77.2 °F /  25.1 °C 24.3 °F /  -4.3 °C 29.84in /  1010.4hPa Calm     14% 0.00in /  0mm 0.0 W/m2
21:24 76.5 °F /  24.7 °C 23.7 °F /  -4.6 °C 29.85in /  1010.7hPa Calm     14% 0.00in /  0mm 0.0 W/m2
21:31 75.9 °F /  24.4 °C 23.4 °F /  -4.8 °C 29.85in /  1010.7hPa Calm   2.0mph /  3.2km/h 14% 0.00in /  0mm 0.0 W/m2
21:37 75.6 °F /  24.2 °C 21.2 °F /  -6 °C 29.85in /  1010.7hPa Calm   3.0mph /  4.8km/h 13% 0.00in /  0mm 0.0 W/m2
21:43 75.9 °F /  24.4 °C 19.6 °F /  -6.9 °C 29.85in /  1010.7hPa Calm   5.0mph /  8km/h 12% 0.00in /  0mm 0.0 W/m2
21:49 76.6 °F /  24.8 °C 20.3 °F /  -6.5 °C 29.85in /  1010.7hPa ESE 0.9mph /  1.4km/h 8.0mph /  12.9km/h 12% 0.00in /  0mm 0.0 W/m2
21:55 77.5 °F /  25.3 °C 18.9 °F /  -7.3 °C 29.85in /  1010.7hPa Calm   5.0mph /  8km/h 11% 0.00in /  0mm 0.0 W/m2
22:01 77.7 °F /  25.4 °C 19.0 °F /  -7.2 °C 29.85in /  1010.7hPa Calm   5.0mph /  8km/h 11% 0.00in /  0mm 0.0 W/m2
22:07 78.1 °F /  25.6 °C 19.2 °F /  -7.1 °C 29.85in /  1010.7hPa Calm   6.0mph /  9.7km/h 11% 0.00in /  0mm 0.0 W/m2
22:13 78.3 °F /  25.7 °C 19.4 °F /  -7 °C 29.86in /  1011.1hPa ESE 2.9mph /  4.7km/h 7.0mph /  11.3km/h 11% 0.00in /  0mm 0.0 W/m2
22:19 78.6 °F /  25.9 °C 17.4 °F /  -8.1 °C 29.85in /  1010.7hPa ESE 2.0mph /  3.2km/h 9.0mph /  14.5km/h 10% 0.00in /  0mm 0.0 W/m2
22:25 78.6 °F /  25.9 °C 17.4 °F /  -8.1 °C 29.85in /  1010.7hPa SSE 4.9mph /  7.9km/h 9.0mph /  14.5km/h 10% 0.00in /  0mm 0.0 W/m2
22:31 78.8 °F /  26 °C 17.6 °F /  -8 °C 29.85in /  1010.7hPa East 6.9mph /  11.1km/h 7.0mph /  11.3km/h 10% 0.00in /  0mm 0.0 W/m2
22:38 78.6 °F /  25.9 °C 17.4 °F /  -8.1 °C 29.85in /  1010.7hPa Calm   7.0mph /  11.3km/h 10% 0.00in /  0mm 0.0 W/m2
22:43 78.4 °F /  25.8 °C 17.4 °F /  -8.1 °C 29.86in /  1011.1hPa Calm   2.0mph /  3.2km/h 10% 0.00in /  0mm 0.0 W/m2
22:49 78.1 °F /  25.6 °C 17.1 °F /  -8.3 °C 29.86in /  1011.1hPa Calm     10% 0.00in /  0mm 0.0 W/m2
22:55 77.5 °F /  25.3 °C 18.9 °F /  -7.3 °C 29.86in /  1011.1hPa Calm   2.0mph /  3.2km/h 11% 0.00in /  0mm 0.0 W/m2
23:01 76.8 °F /  24.9 °C 18.3 °F /  -7.6 °C 29.86in /  1011.1hPa Calm   2.0mph /  3.2km/h 11% 0.00in /  0mm 0.0 W/m2
23:07 76.3 °F /  24.6 °C 18.0 °F /  -7.8 °C 29.86in /  1011.1hPa Calm   5.0mph /  8km/h 11% 0.00in /  0mm 0.0 W/m2
23:13 76.3 °F /  24.6 °C 18.0 °F /  -7.8 °C 29.86in /  1011.1hPa ESE 2.0mph /  3.2km/h 6.0mph /  9.7km/h 11% 0.00in /  0mm 0.0 W/m2
23:19 76.3 °F /  24.6 °C 18.0 °F /  -7.8 °C 29.86in /  1011.1hPa ESE 2.0mph /  3.2km/h 7.0mph /  11.3km/h 11% 0.00in /  0mm 0.0 W/m2
23:25 76.3 °F /  24.6 °C 18.0 °F /  -7.8 °C 29.86in /  1011.1hPa ESE 2.9mph /  4.7km/h 6.0mph /  9.7km/h 11% 0.00in /  0mm 0.0 W/m2
23:32 76.6 °F /  24.8 °C 16.0 °F /  -8.9 °C 29.86in /  1011.1hPa Calm   9.0mph /  14.5km/h 10% 0.00in /  0mm 0.0 W/m2
23:38 76.6 °F /  24.8 °C 16.0 °F /  -8.9 °C 29.86in /  1011.1hPa ESE 4.0mph /  6.4km/h 7.0mph /  11.3km/h 10% 0.00in /  0mm 0.0 W/m2
23:44 76.8 °F /  24.9 °C 16.2 °F /  -8.8 °C 29.86in /  1011.1hPa Calm   8.0mph /  12.9km/h 10% 0.00in /  0mm 0.0 W/m2
23:50 76.8 °F /  24.9 °C 16.2 °F /  -8.8 °C 29.86in /  1011.1hPa SE 2.0mph /  3.2km/h 7.0mph /  11.3km/h 10% 0.00in /  0mm 0.0 W/m2
23:56 76.8 °F /  24.9 °C 16.2 °F /  -8.8 °C 29.86in /  1011.1hPa SSE 0.9mph /  1.4km/h 7.0mph /  11.3km/h 10% 0.00in /  0mm 0.0 W/m2
Olympia, Windhoek, Namibia
Compliments of Weather Underground - 3 mb